This is the latest recevied weather packets stored in our database for station/object DB0NU-15. If no packets are shown the sender has not sent any weather packets the latest 10 day(s).
| Time | Temp. | Humidity | Pressure | Rain* | Wind** | Luminosity | Snow |
|---|---|---|---|---|---|---|---|
| 1777818064 | 23.89° C | 38% | 1014.1 hPa | 0 mm | - | - | - |
| 1777817460 | 23.89° C | 39% | 1014.1 hPa | 0 mm | - | - | - |
| 1777816857 | 23.89° C | 36% | 1014.2 hPa | 0 mm | - | - | - |
| 1777816253 | 23.33° C | 35% | 1014.2 hPa | 0 mm | - | - | - |
| 1777815650 | 24.44° C | 35% | 1014.3 hPa | 0 mm | - | - | - |
| 1777815047 | 24.44° C | 35% | 1014.4 hPa | 0 mm | - | - | - |
| 1777814443 | 25° C | 33% | 1014.5 hPa | 0 mm | - | - | - |
| 1777813840 | 23.89° C | 33% | 1014.6 hPa | 0 mm | - | - | - |
| 1777813237 | 25° C | 32% | 1014.9 hPa | 0 mm | - | - | - |
| 1777812633 | 23.89° C | 33% | 1015.1 hPa | 0 mm | - | - | - |
| 1777811426 | 23.89° C | 35% | 1015.1 hPa | 0 mm | - | - | - |
| 1777810823 | 23.33° C | 36% | 1015.2 hPa | 0 mm | - | - | - |
| 1777810219 | 23.89° C | 35% | 1015.2 hPa | 0 mm | - | - | - |
| 1777809617 | 23.89° C | 34% | 1015.3 hPa | 0 mm | - | - | - |
| 1777807866 | 22.78° C | 35% | 1015.7 hPa | 0 mm | - | - | - |
| 1777806659 | 23.33° C | 35% | 1015.8 hPa | 0 mm | - | - | - |
| 1777805453 | 22.78° C | 35% | 1016 hPa | 0 mm | - | - | - |
| 1777804849 | 22.22° C | 37% | 1016 hPa | 0 mm | - | - | - |
| 1777803642 | 22.78° C | 33% | 1016.2 hPa | 0 mm | - | - | - |
| 1777803039 | 23.33° C | 32% | 1016.3 hPa | 0 mm | - | - | - |
| 1777802436 | 22.78° C | 35% | 1016.4 hPa | 0 mm | - | - | - |
| 1777801832 | 21.67° C | 39% | 1016.7 hPa | 0 mm | - | - | - |
| 1777800625 | 21.11° C | 44% | 1016.7 hPa | 0 mm | - | - | - |
| 1777799419 | 19.44° C | 51% | 1017 hPa | 0 mm | - | - | - |
| 1777798271 | 17.22° C | 53% | 1017.1 hPa | 0 mm | - | - | - |
* Rain latest hour (hover to see other rain measurements)
** Current wind speed in m/s (hover to see current wind gust speed)